createdAt,value
2018-01-04T00:00:09.476Z,39.20
2018-01-04T00:01:09.480Z,41.40
2018-01-04T00:02:09.477Z,35.80
2018-01-04T00:03:09.481Z,45.60
2018-01-04T00:04:09.478Z,46.20
2018-01-04T00:05:10.432Z,41.30
2018-01-04T00:06:09.478Z,43.90
2018-01-04T00:07:09.475Z,35.30
2018-01-04T00:08:09.473Z,42.50
2018-01-04T00:09:09.480Z,44.80
2018-01-04T00:10:09.473Z,39.20
2018-01-04T00:11:09.480Z,43.70
2018-01-04T00:12:09.479Z,38.80
2018-01-04T00:13:09.485Z,40.10
2018-01-04T00:14:09.478Z,40.60
2018-01-04T00:15:09.501Z,43.70
2018-01-04T00:16:09.496Z,44.50
2018-01-04T00:17:09.484Z,43.30
2018-01-04T00:18:09.486Z,41.90
2018-01-04T00:19:09.634Z,43.80
2018-01-04T00:20:09.475Z,40.10
2018-01-04T00:21:09.485Z,40.80
2018-01-04T00:22:09.498Z,30.90
2018-01-04T00:23:09.497Z,40.60
2018-01-04T00:24:09.491Z,37.60
2018-01-04T00:25:09.493Z,47.70
2018-01-04T00:26:09.482Z,43.30
2018-01-04T00:27:09.500Z,43.80
2018-01-04T00:28:09.503Z,45.70
2018-01-04T00:29:09.626Z,41.80
2018-01-04T00:30:09.503Z,40.50
2018-01-04T00:31:09.484Z,48.30
2018-01-04T00:32:09.493Z,41.40
2018-01-04T00:33:09.537Z,40.40
2018-01-04T00:34:09.489Z,42.20
2018-01-04T00:35:09.496Z,43.80
2018-01-04T00:36:09.497Z,39.00
2018-01-04T00:37:09.494Z,41.00
2018-01-04T00:38:09.488Z,45.50
2018-01-04T00:39:09.496Z,45.00
2018-01-04T00:40:09.507Z,42.60
2018-01-04T00:41:09.493Z,40.10
2018-01-04T00:42:09.575Z,47.50
2018-01-04T00:43:09.496Z,40.60
2018-01-04T00:44:09.525Z,42.60
2018-01-04T00:45:09.489Z,37.30
2018-01-04T00:46:09.496Z,42.00
2018-01-04T00:47:09.487Z,43.20
2018-01-04T00:48:09.507Z,34.20
2018-01-04T00:49:09.506Z,38.20
2018-01-04T00:50:09.495Z,40.10
2018-01-04T00:51:09.506Z,38.00
2018-01-04T00:52:09.621Z,43.80
2018-01-04T00:53:09.549Z,38.90
2018-01-04T00:54:09.507Z,46.10
2018-01-04T00:55:09.512Z,48.10
2018-01-04T00:56:09.500Z,42.80
2018-01-04T00:57:09.498Z,40.40
2018-01-04T00:58:09.679Z,44.80
2018-01-04T00:59:09.496Z,44.70
2018-01-04T01:00:09.495Z,38.30
2018-01-04T01:01:09.515Z,38.60
2018-01-04T01:02:09.509Z,40.00
2018-01-04T01:03:09.502Z,37.80
2018-01-04T01:04:09.501Z,37.30
2018-01-04T01:05:09.497Z,50.20
2018-01-04T01:06:09.521Z,38.10
2018-01-04T01:07:09.504Z,35.30
2018-01-04T01:08:09.508Z,39.60
2018-01-04T01:09:09.508Z,36.80
2018-01-04T01:10:09.621Z,39.90
2018-01-04T01:11:09.505Z,46.10
2018-01-04T01:12:09.517Z,33.60
2018-01-04T01:13:09.508Z,40.10
2018-01-04T01:14:09.507Z,39.00
2018-01-04T01:15:09.751Z,33.60
2018-01-04T01:16:09.517Z,36.90
2018-01-04T01:17:09.506Z,40.40
2018-01-04T01:18:10.448Z,44.10
2018-01-04T01:19:09.511Z,44.90
2018-01-04T01:20:09.508Z,36.90
2018-01-04T01:21:09.513Z,43.30
2018-01-04T01:22:09.516Z,41.30
2018-01-04T01:23:09.518Z,44.10
2018-01-04T01:24:09.523Z,41.80
2018-01-04T01:25:09.513Z,41.00
2018-01-04T01:26:09.520Z,46.70
2018-01-04T01:27:09.511Z,36.10
2018-01-04T01:28:09.515Z,38.80
2018-01-04T01:29:09.506Z,38.20
2018-01-04T01:30:09.507Z,40.50
2018-01-04T01:31:09.530Z,33.70
2018-01-04T01:32:09.523Z,44.10
2018-01-04T01:33:09.517Z,40.10
2018-01-04T01:34:09.531Z,32.20
2018-01-04T01:35:09.513Z,48.10
2018-01-04T01:36:09.520Z,37.40
2018-01-04T01:37:09.524Z,36.10
2018-01-04T01:38:09.539Z,40.30
2018-01-04T01:39:09.522Z,41.10
2018-01-04T01:40:09.527Z,36.00
2018-01-04T01:41:09.570Z,37.80
2018-01-04T01:42:09.521Z,38.00
2018-01-04T01:43:09.525Z,37.40
2018-01-04T01:44:09.542Z,39.70
2018-01-04T01:45:09.533Z,42.00
2018-01-04T01:46:09.750Z,38.30
2018-01-04T01:47:09.528Z,42.40
2018-01-04T01:48:09.531Z,38.70
2018-01-04T01:49:09.539Z,31.60
2018-01-04T01:50:09.526Z,38.20
2018-01-04T01:51:09.534Z,42.10
2018-01-04T01:52:09.525Z,39.20
2018-01-04T01:53:09.553Z,38.70
2018-01-04T01:54:09.540Z,41.30
2018-01-04T01:55:09.542Z,37.60
2018-01-04T01:56:09.524Z,36.60
2018-01-04T01:57:09.564Z,39.70
2018-01-04T01:58:09.546Z,40.10
2018-01-04T01:59:09.534Z,38.00
2018-01-04T02:00:09.542Z,34.10
2018-01-04T02:01:10.456Z,31.20
2018-01-04T02:02:09.562Z,36.00
2018-01-04T02:03:09.532Z,39.30
2018-01-04T02:04:09.534Z,39.20
2018-01-04T02:05:09.528Z,41.80
2018-01-04T02:06:09.533Z,39.40
2018-01-04T02:07:09.533Z,40.90
2018-01-04T02:08:09.541Z,41.40
2018-01-04T02:09:09.537Z,34.20
2018-01-04T02:10:09.542Z,35.50
2018-01-04T02:11:09.562Z,40.70
2018-01-04T02:12:09.537Z,33.60
2018-01-04T02:13:09.562Z,42.90
2018-01-04T02:14:09.546Z,31.30
2018-01-04T02:15:09.538Z,36.70
2018-01-04T02:16:09.546Z,37.60
2018-01-04T02:17:09.559Z,33.60
2018-01-04T02:18:09.568Z,26.50
2018-01-04T02:19:09.618Z,38.20
2018-01-04T02:20:09.715Z,37.60
2018-01-04T02:21:09.542Z,38.10
2018-01-04T02:22:09.542Z,40.40
2018-01-04T02:23:09.547Z,33.40
2018-01-04T02:24:09.550Z,39.70
2018-01-04T02:25:09.552Z,35.90
2018-01-04T02:26:09.547Z,36.10
2018-01-04T02:27:09.638Z,35.90
2018-01-04T02:28:09.636Z,36.30
2018-01-04T02:29:09.563Z,34.70
2018-01-04T02:30:09.561Z,32.30
2018-01-04T02:31:09.623Z,36.10
2018-01-04T02:32:09.578Z,32.70
2018-01-04T02:33:09.557Z,36.90
2018-01-04T02:34:09.566Z,36.20
2018-01-04T02:35:09.556Z,37.50
2018-01-04T02:36:09.559Z,32.20
2018-01-04T02:37:09.553Z,37.70
2018-01-04T02:38:09.592Z,42.90
2018-01-04T02:39:09.608Z,39.00
2018-01-04T02:40:09.651Z,32.60
2018-01-04T02:41:09.603Z,37.40
2018-01-04T02:42:09.563Z,40.20
2018-01-04T02:43:09.576Z,34.20
2018-01-04T02:44:09.584Z,44.00
2018-01-04T02:45:09.566Z,41.90
2018-01-04T02:46:09.587Z,43.20
2018-01-04T02:47:09.572Z,46.00
2018-01-04T02:48:09.659Z,36.10
2018-01-04T02:49:09.572Z,31.70
2018-01-04T02:50:09.577Z,38.00
2018-01-04T02:51:09.570Z,36.00
2018-01-04T02:52:09.570Z,37.90
2018-01-04T02:53:09.572Z,35.60
2018-01-04T02:54:09.570Z,38.40
2018-01-04T02:55:09.757Z,37.30
2018-01-04T02:56:09.574Z,37.10
2018-01-04T02:57:09.582Z,33.30
2018-01-04T02:58:09.623Z,33.80
2018-01-04T02:59:09.576Z,43.70
2018-01-04T03:00:09.579Z,41.30
2018-01-04T03:01:09.579Z,38.00
2018-01-04T03:02:09.577Z,37.50
2018-01-04T03:03:09.587Z,35.20
2018-01-04T03:04:09.596Z,39.50
2018-01-04T03:05:09.649Z,39.90
2018-01-04T03:06:09.597Z,39.20
2018-01-04T03:07:09.569Z,50.00
2018-01-04T03:08:09.573Z,34.50
2018-01-04T03:09:09.581Z,35.00
2018-01-04T03:10:09.584Z,40.00
2018-01-04T03:11:09.671Z,41.20
2018-01-04T03:12:09.586Z,38.20
2018-01-04T03:13:09.591Z,40.50
2018-01-04T03:14:09.592Z,39.50
2018-01-04T03:15:09.591Z,37.00
2018-01-04T03:16:09.695Z,39.20
2018-01-04T03:17:09.614Z,36.60
2018-01-04T03:18:09.574Z,38.30
2018-01-04T03:19:09.597Z,38.20
2018-01-04T03:20:09.593Z,42.50
2018-01-04T03:21:09.577Z,35.80
2018-01-04T03:22:09.590Z,37.00
2018-01-04T03:23:09.590Z,37.40
2018-01-04T03:24:09.721Z,36.10
2018-01-04T03:25:09.596Z,42.90
2018-01-04T03:26:09.592Z,41.10
2018-01-04T03:27:09.588Z,44.40
2018-01-04T03:28:09.580Z,44.60
2018-01-04T03:29:09.588Z,35.90
2018-01-04T03:30:09.600Z,41.90
2018-01-04T03:31:09.601Z,40.00
2018-01-04T03:32:09.595Z,36.20
2018-01-04T03:33:09.595Z,39.10
2018-01-04T03:34:09.602Z,38.80
2018-01-04T03:35:09.597Z,42.90
2018-01-04T03:36:09.606Z,41.40
2018-01-04T03:37:09.595Z,40.90
2018-01-04T03:38:09.611Z,39.60
2018-01-04T03:39:09.598Z,42.40
2018-01-04T03:40:09.596Z,47.70
2018-01-04T03:41:09.591Z,32.80
2018-01-04T03:42:09.598Z,41.60
2018-01-04T03:43:09.598Z,38.70
2018-01-04T03:44:09.593Z,37.20
2018-01-04T03:45:09.766Z,34.00
2018-01-04T03:46:09.607Z,41.00
2018-01-04T03:47:10.012Z,35.50
2018-01-04T03:48:09.620Z,44.20
2018-01-04T03:49:09.602Z,34.40
2018-01-04T03:50:09.666Z,35.50
2018-01-04T03:51:09.606Z,41.60
2018-01-04T03:52:09.615Z,38.60
2018-01-04T03:53:09.606Z,40.00
2018-01-04T03:54:09.605Z,41.90
2018-01-04T03:55:09.624Z,35.30
2018-01-04T03:56:09.607Z,36.80
2018-01-04T03:57:09.655Z,38.90
2018-01-04T03:58:09.677Z,43.40
2018-01-04T03:59:09.612Z,40.70
2018-01-04T04:00:09.613Z,45.90
2018-01-04T04:01:09.605Z,35.80
2018-01-04T04:02:09.614Z,37.80
2018-01-04T04:03:09.616Z,40.60
2018-01-04T04:04:09.616Z,40.70
2018-01-04T04:05:09.769Z,34.90
2018-01-04T04:06:09.644Z,44.40
2018-01-04T04:07:09.629Z,42.50
2018-01-04T04:08:10.487Z,37.50
2018-01-04T04:09:09.641Z,40.10
2018-01-04T04:10:09.626Z,35.20
2018-01-04T04:11:09.616Z,41.20
2018-01-04T04:12:09.616Z,37.10
2018-01-04T04:13:09.628Z,35.70
2018-01-04T04:14:09.619Z,44.20
2018-01-04T04:15:09.614Z,34.80
2018-01-04T04:16:09.618Z,39.90
2018-01-04T04:17:09.801Z,38.90
2018-01-04T04:18:09.614Z,34.90
2018-01-04T04:19:09.715Z,39.30
2018-01-04T04:20:09.632Z,40.20
2018-01-04T04:21:09.628Z,39.50
2018-01-04T04:22:09.631Z,32.60
2018-01-04T04:23:09.638Z,39.50
2018-01-04T04:24:09.615Z,37.40
2018-01-04T04:25:09.635Z,38.10
2018-01-04T04:26:09.636Z,39.60
2018-01-04T04:27:09.631Z,44.10
2018-01-04T04:28:09.627Z,41.90
2018-01-04T04:29:09.886Z,40.50
2018-01-04T04:30:09.689Z,41.80
2018-01-04T04:31:09.633Z,40.90
2018-01-04T04:32:09.641Z,39.60
2018-01-04T04:33:09.647Z,40.10
2018-01-04T04:34:09.637Z,37.50
2018-01-04T04:35:09.635Z,39.30
2018-01-04T04:36:09.801Z,34.10
2018-01-04T04:37:09.631Z,35.50
2018-01-04T04:38:09.634Z,40.40
2018-01-04T04:39:09.749Z,37.00
2018-01-04T04:40:09.628Z,39.30
2018-01-04T04:41:09.659Z,40.80
2018-01-04T04:42:09.638Z,39.90
2018-01-04T04:43:09.673Z,38.20
2018-01-04T04:44:09.632Z,45.10
2018-01-04T04:45:09.676Z,37.70
2018-01-04T04:46:09.652Z,42.40
2018-01-04T04:47:09.676Z,35.30
2018-01-04T04:48:09.672Z,35.20
2018-01-04T04:49:09.662Z,40.90
2018-01-04T04:50:09.829Z,41.40
2018-01-04T04:51:09.700Z,37.30
2018-01-04T04:52:09.649Z,31.20
2018-01-04T04:53:09.643Z,43.70
2018-01-04T04:54:09.648Z,38.30
2018-01-04T04:55:09.648Z,41.50
2018-01-04T04:56:09.654Z,38.00
2018-01-04T04:57:09.660Z,39.10
2018-01-04T04:58:09.780Z,35.90
2018-01-04T04:59:09.710Z,38.80
2018-01-04T05:00:09.652Z,38.10
2018-01-04T05:01:09.659Z,39.70
2018-01-04T05:02:09.646Z,44.20
2018-01-04T05:03:09.655Z,41.30
2018-01-04T05:04:09.643Z,35.10
2018-01-04T05:05:09.945Z,40.20
2018-01-04T05:06:09.655Z,33.60
2018-01-04T05:07:09.649Z,43.20
2018-01-04T05:08:09.666Z,45.50
2018-01-04T05:09:09.649Z,39.90
2018-01-04T05:10:09.870Z,39.10
2018-01-04T05:11:09.680Z,35.00
2018-01-04T05:12:09.732Z,44.20
2018-01-04T05:13:09.655Z,40.30
2018-01-04T05:14:09.677Z,42.00
2018-01-04T05:15:09.652Z,37.50
2018-01-04T05:16:09.682Z,39.40
2018-01-04T05:17:09.657Z,39.80
2018-01-04T05:18:09.660Z,50.10
2018-01-04T05:19:09.653Z,45.60
2018-01-04T05:20:09.839Z,41.80
2018-01-04T05:21:09.947Z,41.00
2018-01-04T05:22:09.668Z,47.00
2018-01-04T05:23:09.673Z,39.90
2018-01-04T05:24:09.658Z,36.20
2018-01-04T05:25:09.664Z,42.60
2018-01-04T05:26:09.674Z,39.50
2018-01-04T05:27:09.663Z,44.30
2018-01-04T05:28:09.665Z,43.90
2018-01-04T05:29:09.681Z,40.60
2018-01-04T05:30:09.678Z,42.30
2018-01-04T05:31:09.666Z,36.90
2018-01-04T05:32:09.965Z,44.60
2018-01-04T05:33:10.509Z,44.10
2018-01-04T05:34:09.692Z,38.30
2018-01-04T05:35:09.678Z,35.50
2018-01-04T05:36:09.708Z,39.10
2018-01-04T05:37:09.677Z,41.00
2018-01-04T05:38:09.683Z,42.10
2018-01-04T05:39:09.695Z,41.70
2018-01-04T05:40:09.697Z,41.90
2018-01-04T05:41:09.676Z,45.20
2018-01-04T05:42:09.678Z,44.90
2018-01-04T05:43:09.773Z,45.50
2018-01-04T05:44:09.895Z,41.60
2018-01-04T05:45:09.729Z,38.50
2018-01-04T05:46:10.514Z,40.50
2018-01-04T05:47:09.698Z,45.90
2018-01-04T05:48:09.915Z,47.40
2018-01-04T05:49:09.689Z,39.70
2018-01-04T05:50:09.695Z,42.70
2018-01-04T05:51:09.685Z,50.50
2018-01-04T05:52:09.729Z,44.00
2018-01-04T05:53:09.692Z,39.50
2018-01-04T05:54:09.687Z,43.80
2018-01-04T05:55:09.691Z,47.30
2018-01-04T05:56:09.695Z,42.50
2018-01-04T05:57:09.695Z,51.30
2018-01-04T05:58:09.685Z,38.00
2018-01-04T05:59:10.515Z,48.30
2018-01-04T06:00:09.696Z,45.80
2018-01-04T06:01:09.694Z,46.30
2018-01-04T06:02:09.702Z,46.20
2018-01-04T06:03:09.697Z,46.20
2018-01-04T06:04:09.786Z,46.70
2018-01-04T06:05:09.872Z,46.20
2018-01-04T06:06:09.744Z,47.70
2018-01-04T06:07:09.706Z,47.50
2018-01-04T06:08:09.706Z,44.80
2018-01-04T06:09:09.701Z,42.80
2018-01-04T06:10:09.710Z,43.20
2018-01-04T06:11:09.727Z,40.30
2018-01-04T06:12:09.699Z,43.90
2018-01-04T06:13:09.701Z,51.50
2018-01-04T06:14:10.518Z,44.70
2018-01-04T06:15:09.704Z,42.60
2018-01-04T06:16:09.717Z,41.70
2018-01-04T06:17:10.121Z,47.80
2018-01-04T06:18:09.708Z,51.00
2018-01-04T06:19:09.705Z,48.10
2018-01-04T06:20:09.701Z,52.50
2018-01-04T06:21:09.706Z,43.80
2018-01-04T06:22:09.705Z,52.10
2018-01-04T06:23:09.708Z,39.20
2018-01-04T06:24:09.709Z,47.40
2018-01-04T06:25:09.705Z,48.10
2018-01-04T06:26:09.708Z,53.70
2018-01-04T06:27:09.702Z,47.50
2018-01-04T06:28:09.760Z,45.00
2018-01-04T06:29:09.715Z,42.30
2018-01-04T06:30:09.749Z,48.40
2018-01-04T06:31:09.723Z,52.40
2018-01-04T06:32:09.705Z,46.20
2018-01-04T06:33:09.811Z,47.70
2018-01-04T06:34:09.723Z,43.20
2018-01-04T06:35:09.707Z,40.50
2018-01-04T06:36:09.721Z,50.40
2018-01-04T06:37:09.720Z,47.40
2018-01-04T06:38:09.832Z,50.00
2018-01-04T06:39:09.736Z,52.10
2018-01-04T06:40:10.357Z,43.10
2018-01-04T06:41:09.741Z,51.60
2018-01-04T06:42:09.720Z,43.50
2018-01-04T06:43:09.812Z,49.30
2018-01-04T06:44:09.720Z,49.10
2018-01-04T06:45:09.766Z,52.30
2018-01-04T06:46:09.736Z,42.40
2018-01-04T06:47:09.722Z,49.40
2018-01-04T06:48:09.755Z,56.90
2018-01-04T06:49:09.914Z,55.80
2018-01-04T06:50:09.738Z,51.00
2018-01-04T06:51:09.818Z,52.30
2018-01-04T06:52:09.729Z,52.60
2018-01-04T06:53:09.733Z,56.50
2018-01-04T06:54:09.723Z,51.30
2018-01-04T06:55:09.720Z,48.90
2018-01-04T06:56:09.820Z,49.10
2018-01-04T06:57:09.730Z,50.90
2018-01-04T06:58:09.729Z,55.10
2018-01-04T06:59:09.727Z,51.70
2018-01-04T07:00:09.752Z,48.90
2018-01-04T07:01:09.736Z,54.70
2018-01-04T07:02:09.812Z,50.80
2018-01-04T07:03:09.741Z,61.10
2018-01-04T07:04:09.735Z,49.20
2018-01-04T07:05:09.757Z,51.80
2018-01-04T07:06:09.747Z,51.30
2018-01-04T07:07:09.749Z,49.60
2018-01-04T07:08:09.751Z,54.80
2018-01-04T07:09:09.745Z,57.00
2018-01-04T07:10:09.945Z,47.70
2018-01-04T07:11:09.770Z,46.50
2018-01-04T07:12:09.746Z,51.10
2018-01-04T07:13:09.741Z,45.50
2018-01-04T07:14:09.852Z,49.40
2018-01-04T07:15:09.751Z,55.90
2018-01-04T07:16:09.742Z,53.40
2018-01-04T07:17:09.768Z,48.00
2018-01-04T07:18:09.763Z,45.90
2018-01-04T07:19:09.751Z,45.90
2018-01-04T07:20:09.746Z,48.90
2018-01-04T07:21:09.776Z,52.70
2018-01-04T07:22:09.751Z,54.10
2018-01-04T07:23:09.767Z,48.70
2018-01-04T07:24:09.755Z,54.60
2018-01-04T07:25:09.754Z,56.80
2018-01-04T07:26:09.756Z,45.30
2018-01-04T07:27:09.827Z,51.40
2018-01-04T07:28:09.751Z,43.70
2018-01-04T07:29:09.799Z,48.20
2018-01-04T07:30:09.767Z,57.20
2018-01-04T07:31:09.752Z,54.30
2018-01-04T07:32:09.990Z,48.90
2018-01-04T07:33:09.759Z,47.00
2018-01-04T07:34:09.753Z,50.50
2018-01-04T07:35:09.762Z,48.90
2018-01-04T07:36:09.767Z,50.30
2018-01-04T07:37:09.759Z,45.90
2018-01-04T07:38:09.760Z,50.40
2018-01-04T07:39:09.768Z,50.60
2018-01-04T07:40:10.542Z,48.10
2018-01-04T07:41:09.760Z,48.40
2018-01-04T07:42:09.773Z,53.30
2018-01-04T07:43:09.763Z,52.00
2018-01-04T07:44:09.769Z,48.50
2018-01-04T07:45:09.768Z,49.20
2018-01-04T07:46:09.782Z,47.50
2018-01-04T07:47:09.776Z,46.90
2018-01-04T07:48:09.835Z,49.70
2018-01-04T07:49:09.809Z,52.80
2018-01-04T07:50:10.541Z,46.00
2018-01-04T07:51:09.769Z,45.70
2018-01-04T07:52:09.771Z,46.30
2018-01-04T07:53:09.768Z,52.10
2018-01-04T07:54:09.779Z,47.70
2018-01-04T07:55:09.776Z,44.40
2018-01-04T07:56:09.788Z,49.90
2018-01-04T07:57:09.780Z,43.90
2018-01-04T07:58:09.875Z,46.50
2018-01-04T07:59:09.780Z,51.80
2018-01-04T08:00:09.789Z,46.00
2018-01-04T08:01:09.777Z,45.00
2018-01-04T08:02:09.777Z,50.30
2018-01-04T08:03:09.785Z,46.50
2018-01-04T08:04:09.782Z,43.50
2018-01-04T08:05:09.794Z,40.50
2018-01-04T08:06:09.796Z,56.80
2018-01-04T08:07:09.791Z,43.90
2018-01-04T08:08:09.789Z,44.30
2018-01-04T08:09:09.785Z,43.50
2018-01-04T08:10:09.811Z,41.80
2018-01-04T08:11:10.553Z,43.80
2018-01-04T08:12:09.794Z,44.90
2018-01-04T08:13:09.787Z,49.90
2018-01-04T08:14:09.794Z,42.60
2018-01-04T08:15:09.791Z,43.70
2018-01-04T08:16:09.798Z,43.20
2018-01-04T08:17:09.799Z,41.40
2018-01-04T08:18:09.800Z,44.80
2018-01-04T08:19:09.798Z,44.90
2018-01-04T08:20:09.803Z,48.00
2018-01-04T08:21:09.827Z,41.60
2018-01-04T08:22:09.811Z,45.40
2018-01-04T08:23:09.870Z,44.20
2018-01-04T08:24:09.863Z,44.00
2018-01-04T08:25:09.821Z,47.90
2018-01-04T08:26:09.808Z,51.80
2018-01-04T08:27:09.808Z,46.50
2018-01-04T08:28:09.807Z,47.20
2018-01-04T08:29:09.822Z,42.10
2018-01-04T08:30:11.086Z,39.50
2018-01-04T08:31:09.803Z,48.80
2018-01-04T08:32:09.811Z,45.10
2018-01-04T08:33:09.813Z,48.80
2018-01-04T08:34:10.561Z,44.50
2018-01-04T08:35:09.817Z,47.80
2018-01-04T08:36:09.823Z,42.50
2018-01-04T08:37:09.844Z,43.70
2018-01-04T08:38:09.818Z,43.90
2018-01-04T08:39:09.819Z,41.80
2018-01-04T08:40:09.832Z,40.20
2018-01-04T08:41:11.074Z,44.80
2018-01-04T08:42:09.841Z,43.80
2018-01-04T08:43:09.844Z,46.60
2018-01-04T08:44:09.828Z,47.00
2018-01-04T08:45:09.864Z,39.50
2018-01-04T08:46:09.874Z,37.60
2018-01-04T08:47:09.823Z,43.60
2018-01-04T08:48:09.833Z,42.10
2018-01-04T08:49:10.308Z,43.40
2018-01-04T08:50:09.831Z,48.10
2018-01-04T08:51:09.849Z,44.50
2018-01-04T08:52:09.990Z,42.70
2018-01-04T08:53:09.932Z,40.20
2018-01-04T08:54:09.843Z,43.30
2018-01-04T08:55:09.892Z,44.30
2018-01-04T08:56:09.839Z,48.10
2018-01-04T08:57:09.835Z,48.30
2018-01-04T08:58:09.847Z,40.60
2018-01-04T08:59:09.844Z,38.40
2018-01-04T09:00:09.849Z,42.30
2018-01-04T09:01:09.846Z,47.10
2018-01-04T09:02:09.868Z,38.50
2018-01-04T09:03:09.845Z,42.10
2018-01-04T09:04:09.845Z,45.00
2018-01-04T09:05:10.006Z,45.30
2018-01-04T09:06:09.846Z,46.70
2018-01-04T09:07:09.899Z,49.10
2018-01-04T09:08:09.847Z,46.40
2018-01-04T09:09:09.868Z,42.30
2018-01-04T09:10:09.846Z,44.40
2018-01-04T09:11:09.869Z,41.30
2018-01-04T09:12:09.856Z,45.30
2018-01-04T09:13:10.673Z,44.60
2018-01-04T09:14:09.856Z,36.90
2018-01-04T09:15:09.865Z,37.40
2018-01-04T09:16:10.080Z,40.40
2018-01-04T09:17:09.860Z,49.20
2018-01-04T09:18:10.010Z,38.00
2018-01-04T09:19:10.571Z,46.80
2018-01-04T09:20:09.920Z,39.50
2018-01-04T09:21:09.924Z,46.80
2018-01-04T09:22:09.948Z,41.30
2018-01-04T09:23:09.878Z,45.80
2018-01-04T09:24:09.874Z,41.80
2018-01-04T09:25:09.892Z,42.40
2018-01-04T09:26:09.887Z,42.10
2018-01-04T09:27:09.872Z,43.50
2018-01-04T09:28:09.891Z,42.10
2018-01-04T09:29:09.900Z,50.60
2018-01-04T09:30:09.885Z,38.70
2018-01-04T09:31:09.952Z,43.50
2018-01-04T09:32:09.900Z,43.90
2018-01-04T09:33:09.877Z,39.60
2018-01-04T09:34:09.871Z,37.60
2018-01-04T09:35:09.879Z,47.60
2018-01-04T09:36:09.885Z,51.00
2018-01-04T09:37:09.890Z,39.90
2018-01-04T09:38:09.918Z,39.40
2018-01-04T09:39:09.887Z,36.30
2018-01-04T09:40:09.904Z,42.00
2018-01-04T09:41:09.914Z,37.10
2018-01-04T09:42:09.912Z,39.50
2018-01-04T09:43:09.964Z,42.80
2018-01-04T09:44:09.904Z,31.30
2018-01-04T09:45:09.963Z,39.80
2018-01-04T09:46:10.574Z,38.70
2018-01-04T09:47:09.906Z,36.20
2018-01-04T09:48:09.952Z,39.70
2018-01-04T09:49:09.944Z,36.80
2018-01-04T09:50:09.955Z,43.60
2018-01-04T09:51:09.904Z,43.20
2018-01-04T09:52:10.058Z,35.90
2018-01-04T09:53:09.899Z,32.50
2018-01-04T09:54:09.927Z,33.00
2018-01-04T09:55:09.918Z,37.70
2018-01-04T09:56:09.905Z,35.00
2018-01-04T09:57:09.910Z,39.30
2018-01-04T09:58:09.908Z,32.70
2018-01-04T09:59:10.100Z,33.20
2018-01-04T10:00:09.936Z,31.40
2018-01-04T10:01:09.910Z,33.90
2018-01-04T10:02:10.585Z,30.20
2018-01-04T10:03:10.077Z,35.90
2018-01-04T10:04:09.921Z,30.00
2018-01-04T10:05:09.964Z,37.40
2018-01-04T10:06:09.961Z,37.30
2018-01-04T10:07:09.957Z,42.70
2018-01-04T10:08:09.991Z,34.70
2018-01-04T10:09:09.926Z,33.00
2018-01-04T10:10:09.968Z,34.70
2018-01-04T10:11:09.937Z,33.60
2018-01-04T10:12:10.013Z,38.70
2018-01-04T10:13:09.956Z,32.40
2018-01-04T10:14:09.939Z,36.70
2018-01-04T10:15:10.582Z,30.40
2018-01-04T10:16:09.931Z,31.00
2018-01-04T10:17:09.970Z,33.90
2018-01-04T10:18:10.612Z,32.60
2018-01-04T10:19:09.935Z,34.50
2018-01-04T10:20:09.941Z,33.80
2018-01-04T10:21:09.947Z,31.60
2018-01-04T10:22:09.944Z,33.00
2018-01-04T10:23:10.034Z,34.70
2018-01-04T10:24:09.991Z,32.20
2018-01-04T10:25:09.967Z,31.60
2018-01-04T10:26:09.971Z,32.50
2018-01-04T10:27:09.964Z,34.20
2018-01-04T10:28:09.959Z,36.40
2018-01-04T10:29:09.975Z,33.00
2018-01-04T10:30:09.955Z,38.40
2018-01-04T10:31:09.989Z,36.50
2018-01-04T10:32:09.972Z,34.40
2018-01-04T10:33:09.988Z,28.70
2018-01-04T10:34:10.049Z,33.50
2018-01-04T10:35:09.991Z,34.00
2018-01-04T10:36:09.974Z,35.00
2018-01-04T10:37:09.988Z,35.00
2018-01-04T10:38:09.993Z,31.00
2018-01-04T10:39:09.971Z,34.70
2018-01-04T10:40:09.973Z,35.40
2018-01-04T10:41:10.009Z,31.80
2018-01-04T10:42:10.036Z,30.60
2018-01-04T10:43:09.977Z,34.10
2018-01-04T10:44:09.984Z,32.80
2018-01-04T10:45:09.997Z,26.00
2018-01-04T10:46:10.591Z,30.60
2018-01-04T10:47:10.007Z,28.90
2018-01-04T10:48:10.075Z,28.70
2018-01-04T10:49:10.074Z,30.70
2018-01-04T10:50:10.018Z,28.10
2018-01-04T10:51:10.001Z,33.90
2018-01-04T10:52:10.083Z,33.80
2018-01-04T10:53:10.008Z,30.30
2018-01-04T10:54:09.987Z,30.30
2018-01-04T10:55:10.439Z,30.00
2018-01-04T10:56:10.196Z,27.60
2018-01-04T10:57:10.045Z,27.00
2018-01-04T10:58:10.148Z,30.40
2018-01-04T10:59:10.028Z,27.10
2018-01-04T11:00:10.556Z,29.50
2018-01-04T11:01:17.089Z,29.20
2018-01-04T11:02:10.069Z,30.30
2018-01-04T11:03:10.148Z,27.10
2018-01-04T11:04:10.087Z,30.00
2018-01-04T11:05:10.229Z,32.00
2018-01-04T11:06:10.165Z,31.50
2018-01-04T11:07:13.603Z,27.40
2018-01-04T11:08:10.583Z,30.80
2018-01-04T11:09:10.263Z,28.90
2018-01-04T11:10:10.195Z,32.00
2018-01-04T11:11:10.321Z,25.10
2018-01-04T11:12:10.087Z,30.40
2018-01-04T11:13:10.027Z,27.50
2018-01-04T11:14:10.084Z,31.20
2018-01-04T11:15:10.155Z,31.50
2018-01-04T11:16:10.403Z,28.10
2018-01-04T11:17:10.168Z,25.20
2018-01-04T11:18:10.228Z,27.70
2018-01-04T11:19:10.603Z,28.60
2018-01-04T11:20:10.103Z,25.30
2018-01-04T11:21:10.059Z,26.40
2018-01-04T11:22:10.055Z,24.90
2018-01-04T11:23:10.058Z,25.60
2018-01-04T11:24:10.142Z,23.80
2018-01-04T11:25:10.062Z,22.40
2018-01-04T11:26:10.068Z,26.00
2018-01-04T11:27:10.058Z,31.70
2018-01-04T11:28:10.073Z,29.40
2018-01-04T11:29:10.109Z,24.80
2018-01-04T11:30:10.069Z,27.00
2018-01-04T11:31:10.123Z,26.10
2018-01-04T11:32:10.057Z,28.60
2018-01-04T11:33:10.094Z,27.70
2018-01-04T11:34:10.076Z,25.60
2018-01-04T11:35:10.087Z,23.60
2018-01-04T11:36:10.077Z,23.80
2018-01-04T11:37:10.078Z,25.20
2018-01-04T11:38:10.062Z,24.00
2018-01-04T11:39:10.068Z,27.20
2018-01-04T11:40:10.113Z,27.50
2018-01-04T11:41:10.094Z,24.50
2018-01-04T11:42:10.075Z,28.70
2018-01-04T11:43:10.080Z,27.50
2018-01-04T11:44:10.088Z,27.80
2018-01-04T11:45:10.144Z,26.70
2018-01-04T11:46:10.154Z,24.40
2018-01-04T11:47:10.098Z,27.00
2018-01-04T11:48:10.108Z,22.40
2018-01-04T11:49:10.141Z,25.20
2018-01-04T11:50:10.093Z,23.40
2018-01-04T11:51:10.087Z,25.90
2018-01-04T11:52:10.097Z,27.80
2018-01-04T11:53:10.092Z,21.80
2018-01-04T11:54:10.095Z,22.10
2018-01-04T11:55:10.109Z,17.10
2018-01-04T11:56:10.261Z,19.50
2018-01-04T11:57:10.118Z,19.70
2018-01-04T11:58:10.127Z,22.70
2018-01-04T11:59:10.129Z,22.40
2018-01-04T12:00:10.108Z,20.90
2018-01-04T12:01:10.298Z,20.30
2018-01-04T12:02:10.127Z,17.10
2018-01-04T12:03:10.132Z,21.50
2018-01-04T12:04:10.162Z,20.80
2018-01-04T12:05:10.144Z,24.50
2018-01-04T12:06:10.141Z,18.00
2018-01-04T12:07:10.144Z,22.40
2018-01-04T12:08:10.172Z,24.00
2018-01-04T12:09:10.145Z,24.10
2018-01-04T12:10:10.128Z,22.40
2018-01-04T12:11:10.160Z,21.90
2018-01-04T12:12:10.188Z,20.10
2018-01-04T12:13:10.260Z,20.20
2018-01-04T12:14:10.137Z,20.40
2018-01-04T12:15:10.343Z,21.00
2018-01-04T12:16:10.289Z,24.40
2018-01-04T12:17:10.352Z,23.20
2018-01-04T12:18:10.209Z,21.90
2018-01-04T12:19:10.265Z,19.40
2018-01-04T12:20:10.529Z,20.80
2018-01-04T12:21:10.157Z,20.90
2018-01-04T12:22:10.146Z,19.10
2018-01-04T12:23:10.159Z,20.80
2018-01-04T12:24:10.174Z,20.70
2018-01-04T12:25:10.166Z,24.80
2018-01-04T12:26:10.182Z,18.20
2018-01-04T12:27:10.160Z,20.80
2018-01-04T12:28:10.194Z,22.90
2018-01-04T12:29:10.226Z,22.10
2018-01-04T12:30:10.224Z,19.50
2018-01-04T12:31:10.204Z,16.00
2018-01-04T12:32:10.183Z,21.30
2018-01-04T12:33:10.200Z,21.00
2018-01-04T12:34:10.236Z,22.60
2018-01-04T12:35:10.250Z,21.90
2018-01-04T12:36:10.237Z,21.30
2018-01-04T12:37:10.214Z,20.70
2018-01-04T12:38:10.238Z,20.00
2018-01-04T12:39:10.181Z,19.80
2018-01-04T12:40:10.188Z,19.20
2018-01-04T12:41:10.205Z,21.90
2018-01-04T12:42:10.191Z,19.60
2018-01-04T12:43:10.425Z,16.60
2018-01-04T12:44:10.191Z,19.60
2018-01-04T12:45:11.125Z,21.00
2018-01-04T12:46:10.202Z,18.50
2018-01-04T12:47:10.213Z,16.60
2018-01-04T12:48:10.449Z,21.20
2018-01-04T12:49:10.295Z,23.70
2018-01-04T12:50:10.212Z,19.90
2018-01-04T12:51:10.256Z,17.10
2018-01-04T12:52:10.310Z,21.70